Aegean Navigator — SWBI — position and weather

sailwx.info

Track history (hours):
 
Tides and Currents Weather Stations Pressure Air Temp Water Temp Dewpoint Dewpoint Depression Visibility Wind Speed Wind Dir Waves Ship Positions

Aegean Navigator

Last reported at 2016-Dec-04 08:33 UTC. Time now 2016-Dec-06 10:08 UTC.
Position N 28°08' W 013°40'.

Length 274 m; draft 9 m.

Type: Ship. MMSI: 240634000.

Date/timePositionNaut miles runAvg speedWind from/ knotsBaromVisibWave heightAir tempDewpointWater temp
2016-Dec-04 08:33N 28°08' W 013°40'13 6.2
2016-Dec-04 06:30N 28°20' W 013°34'1110.1
2016-Dec-04 05:27N 28°30' W 013°29'234 9.2
2016-Dec-03 04:07N 31°44' W 010°58'611.3
2016-Dec-03 03:33N 31°50' W 010°54'1111.2
2016-Dec-03 02:33N 31°59' W 010°48'1111.5
2016-Dec-03 01:34N 32°09' W 010°41'1111.2
2016-Dec-03 00:33N 32°19' W 010°35'33311.9
2016-Dec-01 20:33N 35°58' W 005°32'1110.8
2016-Dec-01 19:33N 36°06' W 005°23'1 0.0
2016-Dec-01 05:29N 36°06' W 005°22'5 5.1
2016-Dec-01 04:33N 36°07' W 005°16'6 2.6
2016-Dec-01 02:17N 36°10' W 005°11'11 1.0
2016-Nov-30 15:33N 36°01' W 005°18'9 8.7
2016-Nov-30 14:33N 35°58' W 005°28'  
2016-Nov-25 10:29N 28°27' W 013°14'2412.3
2016-Nov-25 08:31N 28°08' W 013°31'  
Track history (hours):
 
Tides and Currents Weather Stations Pressure Air Temp Water Temp Dewpoint Dewpoint Depression Visibility Wind Speed Wind Dir Waves Ship Positions

Aegean Navigator

Last reported at 2016-Dec-04 08:33 UTC. Time now 2016-Dec-06 10:08 UTC.
Position N 28°08' W 013°40'.

Length 274 m; draft 9 m.

Type: Ship. MMSI: 240634000.

Date/timePositionNaut miles runAvg speedWind from/ knotsBaromVisibWave heightAir tempDewpointWater temp
2016-Dec-04 08:33N 28°08' W 013°40'13 6.2
2016-Dec-04 06:30N 28°20' W 013°34'1110.1
2016-Dec-04 05:27N 28°30' W 013°29'234 9.2
2016-Dec-03 04:07N 31°44' W 010°58'611.3
2016-Dec-03 03:33N 31°50' W 010°54'1111.2
2016-Dec-03 02:33N 31°59' W 010°48'1111.5
2016-Dec-03 01:34N 32°09' W 010°41'1111.2
2016-Dec-03 00:33N 32°19' W 010°35'33311.9
2016-Dec-01 20:33N 35°58' W 005°32'1110.8
2016-Dec-01 19:33N 36°06' W 005°23'1 0.0
2016-Dec-01 05:29N 36°06' W 005°22'5 5.1
2016-Dec-01 04:33N 36°07' W 005°16'6 2.6
2016-Dec-01 02:17N 36°10' W 005°11'11 1.0
2016-Nov-30 15:33N 36°01' W 005°18'9 8.7
2016-Nov-30 14:33N 35°58' W 005°28'  
2016-Nov-25 10:29N 28°27' W 013°14'2412.3
2016-Nov-25 08:31N 28°08' W 013°31'  

Dump ship's entire track history